Blue Bay — V2CE6 — position and weather

sailwx.info

Track history (hours):
 
Tides and Currents Weather Stations Pressure Air Temp Water Temp Dewpoint Dewpoint Depression Visibility Wind Speed Wind Dir Waves Ship Positions

Blue Bay

Last reported at 2016-Jun-26 13:13 UTC. Time now 2016-Jun-27 16:56 UTC.
Position N 50°46' W 010°22'.

Length 89 m; draft 5.3 m.

Type: Cargo ship. MMSI: 304519000.

Date/timePositionNaut miles runAvg speedWind from/ knotsBaromVisibWave heightAir tempDewpointWater temp
2016-Jun-26 13:13N 50°46' W 010°22'6 9.6
2016-Jun-26 12:34N 50°52' W 010°22'21 9.7
2016-Jun-26 10:22N 51°13' W 010°23'8 9.7
2016-Jun-26 09:31N 51°21' W 010°24'9 9.8
2016-Jun-26 08:33N 51°31' W 010°26'76 8.4
2016-Jun-25 23:33N 52°43' W 009°49'10 9.7
2016-Jun-25 22:33N 52°51' W 009°40'11 9.6
2016-Jun-25 21:26N 53°00' W 009°30'9 9.6
2016-Jun-25 20:29N 53°07' W 009°21'5 0.1
2016-Jun-24 04:30N 53°09' W 009°27'0 0.0
2016-Jun-24 03:33N 53°09' W 009°27'3 3.2
2016-Jun-24 02:33N 53°09' W 009°33'3 2.8
2016-Jun-24 01:33N 53°06' W 009°30'6 5.3
2016-Jun-24 00:27N 53°00' W 009°30'1210.6
2016-Jun-23 23:20N 52°51' W 009°43'910.9
2016-Jun-23 22:32N 52°45' W 009°52'73 9.1
2016-Jun-23 14:28N 51°35' W 010°26'9 9.6
2016-Jun-23 13:33N 51°30' W 010°14'10 9.7
2016-Jun-23 12:33N 51°26' W 010°00'1010.0
2016-Jun-23 11:34N 51°22' W 009°45'9 9.3
2016-Jun-23 10:33N 51°22' W 009°31'10 9.9
2016-Jun-23 09:33N 51°25' W 009°16'1010.2
2016-Jun-23 08:33N 51°28' W 009°00'1010.1
2016-Jun-23 07:33N 51°32' W 008°45'2010.1
2016-Jun-23 05:33N 51°39' W 008°14'1110.6
2016-Jun-23 04:33N 51°42' W 007°58'1110.9
2016-Jun-23 03:33N 51°46' W 007°42'1111.0
2016-Jun-23 02:33N 51°49' W 007°25'1111.0
2016-Jun-23 01:33N 51°53' W 007°08'1110.8
2016-Jun-23 00:33N 51°57' W 006°52'1010.2
2016-Jun-22 23:33N 52°01' W 006°36'10 9.7
2016-Jun-22 22:33N 52°05' W 006°22'9 8.7
2016-Jun-22 21:33N 52°10' W 006°10'8 7.8
2016-Jun-22 20:33N 52°17' W 006°06'8 8.4
2016-Jun-22 19:33N 52°25' W 006°02'9 9.4
2016-Jun-22 18:33N 52°34' W 005°59'6610.8
2016-Jun-22 12:29N 53°40' W 006°07'7 7.1
2016-Jun-22 11:31N 53°44' W 006°16'0 0.0
2016-Jun-20 09:05N 53°44' W 006°16'2 4.1
2016-Jun-20 08:32N 53°44' W 006°12'1 0.5
2016-Jun-20 07:32N 53°44' W 006°11'0 0.0
2016-Jun-20 06:32N 53°44' W 006°11'0 0.0
2016-Jun-20 05:32N 53°44' W 006°11'0 0.0
2016-Jun-20 04:26N 53°44' W 006°11'0 0.1
2016-Jun-20 03:34N 53°44' W 006°11'7 6.4
2016-Jun-20 02:31N 53°39' W 006°03'68 9.7
2016-Jun-19 19:33N 52°32' W 005°51'1312.6
2016-Jun-19 18:33N 52°20' W 005°55'1211.7
2016-Jun-19 17:33N 52°09' W 006°00'1110.6
2016-Jun-19 16:33N 51°60' W 006°10'  
Track history (hours):
 
Tides and Currents Weather Stations Pressure Air Temp Water Temp Dewpoint Dewpoint Depression Visibility Wind Speed Wind Dir Waves Ship Positions

Blue Bay

Last reported at 2016-Jun-26 13:13 UTC. Time now 2016-Jun-27 16:56 UTC.
Position N 50°46' W 010°22'.

Length 89 m; draft 5.3 m.

Type: Cargo ship. MMSI: 304519000.

Date/timePositionNaut miles runAvg speedWind from/ knotsBaromVisibWave heightAir tempDewpointWater temp
2016-Jun-26 13:13N 50°46' W 010°22'6 9.6
2016-Jun-26 12:34N 50°52' W 010°22'21 9.7
2016-Jun-26 10:22N 51°13' W 010°23'8 9.7
2016-Jun-26 09:31N 51°21' W 010°24'9 9.8
2016-Jun-26 08:33N 51°31' W 010°26'76 8.4
2016-Jun-25 23:33N 52°43' W 009°49'10 9.7
2016-Jun-25 22:33N 52°51' W 009°40'11 9.6
2016-Jun-25 21:26N 53°00' W 009°30'9 9.6
2016-Jun-25 20:29N 53°07' W 009°21'5 0.1
2016-Jun-24 04:30N 53°09' W 009°27'0 0.0
2016-Jun-24 03:33N 53°09' W 009°27'3 3.2
2016-Jun-24 02:33N 53°09' W 009°33'3 2.8
2016-Jun-24 01:33N 53°06' W 009°30'6 5.3
2016-Jun-24 00:27N 53°00' W 009°30'1210.6
2016-Jun-23 23:20N 52°51' W 009°43'910.9
2016-Jun-23 22:32N 52°45' W 009°52'73 9.1
2016-Jun-23 14:28N 51°35' W 010°26'9 9.6
2016-Jun-23 13:33N 51°30' W 010°14'10 9.7
2016-Jun-23 12:33N 51°26' W 010°00'1010.0
2016-Jun-23 11:34N 51°22' W 009°45'9 9.3
2016-Jun-23 10:33N 51°22' W 009°31'10 9.9
2016-Jun-23 09:33N 51°25' W 009°16'1010.2
2016-Jun-23 08:33N 51°28' W 009°00'1010.1
2016-Jun-23 07:33N 51°32' W 008°45'2010.1
2016-Jun-23 05:33N 51°39' W 008°14'1110.6
2016-Jun-23 04:33N 51°42' W 007°58'1110.9
2016-Jun-23 03:33N 51°46' W 007°42'1111.0
2016-Jun-23 02:33N 51°49' W 007°25'1111.0
2016-Jun-23 01:33N 51°53' W 007°08'1110.8
2016-Jun-23 00:33N 51°57' W 006°52'1010.2
2016-Jun-22 23:33N 52°01' W 006°36'10 9.7
2016-Jun-22 22:33N 52°05' W 006°22'9 8.7
2016-Jun-22 21:33N 52°10' W 006°10'8 7.8
2016-Jun-22 20:33N 52°17' W 006°06'8 8.4
2016-Jun-22 19:33N 52°25' W 006°02'9 9.4
2016-Jun-22 18:33N 52°34' W 005°59'6610.8
2016-Jun-22 12:29N 53°40' W 006°07'7 7.1
2016-Jun-22 11:31N 53°44' W 006°16'0 0.0
2016-Jun-20 09:05N 53°44' W 006°16'2 4.1
2016-Jun-20 08:32N 53°44' W 006°12'1 0.5
2016-Jun-20 07:32N 53°44' W 006°11'0 0.0
2016-Jun-20 06:32N 53°44' W 006°11'0 0.0
2016-Jun-20 05:32N 53°44' W 006°11'0 0.0
2016-Jun-20 04:26N 53°44' W 006°11'0 0.1
2016-Jun-20 03:34N 53°44' W 006°11'7 6.4
2016-Jun-20 02:31N 53°39' W 006°03'68 9.7
2016-Jun-19 19:33N 52°32' W 005°51'1312.6
2016-Jun-19 18:33N 52°20' W 005°55'1211.7
2016-Jun-19 17:33N 52°09' W 006°00'1110.6
2016-Jun-19 16:33N 51°60' W 006°10'  

Dump ship's entire track history